createdAt,value
2019-02-10T00:00:44.864Z,76.48
2019-02-10T00:03:13.439Z,76.30
2019-02-10T00:05:42.039Z,76.79
2019-02-10T00:08:11.622Z,77.10
2019-02-10T00:10:40.206Z,75.97
2019-02-10T00:13:29.856Z,77.32
2019-02-10T00:16:00.821Z,76.05
2019-02-10T00:18:29.400Z,76.34
2019-02-10T00:20:58.089Z,76.53
2019-02-10T00:23:26.684Z,74.84
2019-02-10T00:25:55.278Z,75.49
2019-02-10T00:28:23.864Z,75.13
2019-02-10T00:30:52.441Z,75.00
2019-02-10T00:33:21.031Z,74.79
2019-02-10T00:35:49.617Z,73.43
2019-02-10T00:38:18.199Z,72.41
2019-02-10T00:40:46.779Z,71.25
2019-02-10T00:43:15.357Z,72.21
2019-02-10T00:45:43.991Z,72.46
2019-02-10T00:48:12.577Z,73.57
2019-02-10T00:50:41.158Z,73.12
2019-02-10T00:53:09.963Z,72.92
2019-02-10T00:55:38.597Z,73.58
2019-02-10T00:58:07.879Z,74.64
2019-02-10T01:00:36.455Z,72.97
2019-02-10T01:03:05.036Z,73.48
2019-02-10T01:05:33.875Z,74.41
2019-02-10T01:08:02.541Z,73.09
2019-02-10T01:10:31.500Z,73.17
2019-02-10T01:13:00.170Z,72.31
2019-02-10T01:15:28.786Z,72.97
2019-02-10T01:17:57.405Z,73.52
2019-02-10T01:20:25.982Z,73.77
2019-02-10T01:22:54.572Z,73.96
2019-02-10T01:25:23.143Z,74.09
2019-02-10T01:27:51.723Z,74.27
2019-02-10T01:30:20.302Z,74.17
2019-02-10T01:32:48.885Z,73.58
2019-02-10T01:35:17.474Z,73.47
2019-02-10T01:37:46.055Z,72.96
2019-02-10T01:40:14.633Z,73.27
2019-02-10T01:42:43.223Z,74.57
2019-02-10T01:45:13.267Z,74.38
2019-02-10T01:47:41.843Z,73.13
2019-02-10T01:50:11.455Z,74.07
2019-02-10T01:52:40.037Z,73.69
2019-02-10T01:55:13.663Z,73.82
2019-02-10T01:57:42.240Z,73.98
2019-02-10T02:00:13.353Z,74.15
2019-02-10T02:02:41.940Z,73.33
2019-02-10T02:05:11.444Z,73.87
2019-02-10T02:07:40.024Z,72.77
2019-02-10T02:10:11.647Z,73.65
2019-02-10T02:12:40.226Z,72.23
2019-02-10T02:15:15.455Z,72.45
2019-02-10T02:17:44.031Z,73.15
2019-02-10T02:20:13.566Z,73.25
2019-02-10T02:22:42.396Z,73.03
2019-02-10T02:25:12.987Z,73.08
2019-02-10T02:27:41.570Z,72.73
2019-02-10T02:30:12.101Z,72.68
2019-02-10T02:32:40.688Z,70.35
2019-02-10T02:35:10.265Z,71.10
2019-02-10T02:37:38.848Z,70.20
2019-02-10T02:40:10.097Z,69.91
2019-02-10T02:42:38.676Z,70.62
2019-02-10T02:45:11.907Z,70.37
2019-02-10T02:47:40.480Z,68.78
2019-02-10T02:50:11.120Z,68.74
2019-02-10T02:52:39.808Z,68.03
2019-02-10T02:55:09.860Z,68.63
2019-02-10T02:57:38.439Z,68.40
2019-02-10T03:00:10.933Z,68.34
2019-02-10T03:02:39.519Z,69.53
2019-02-10T03:05:12.068Z,70.51
2019-02-10T03:07:40.644Z,71.24
2019-02-10T03:10:10.212Z,70.75
2019-02-10T03:12:38.793Z,70.41
2019-02-10T03:15:09.054Z,71.54
2019-02-10T03:17:37.637Z,71.88
2019-02-10T03:20:07.817Z,71.31
2019-02-10T03:22:36.403Z,71.17
2019-02-10T03:25:06.299Z,71.16
2019-02-10T03:27:34.938Z,70.87
2019-02-10T03:30:04.497Z,71.03
2019-02-10T03:32:33.084Z,70.61
2019-02-10T03:35:01.656Z,70.33
2019-02-10T03:37:30.253Z,69.59
2019-02-10T03:39:58.822Z,70.54
2019-02-10T03:42:27.392Z,70.00
2019-02-10T03:44:55.971Z,70.75
2019-02-10T03:47:24.559Z,70.23
2019-02-10T03:49:53.151Z,70.80
2019-02-10T03:52:21.720Z,69.90
2019-02-10T03:54:50.305Z,69.20
2019-02-10T03:57:18.891Z,68.17
2019-02-10T03:59:47.516Z,68.16
2019-02-10T04:02:16.094Z,67.27
2019-02-10T04:04:44.675Z,67.59
2019-02-10T04:07:13.252Z,67.04
2019-02-10T04:09:41.825Z,67.22
2019-02-10T04:12:10.983Z,67.05
2019-02-10T04:14:39.584Z,67.17
2019-02-10T04:17:08.905Z,65.95
2019-02-10T04:19:37.485Z,66.79
2019-02-10T04:22:06.067Z,66.56
2019-02-10T04:24:34.644Z,67.64
2019-02-10T04:27:03.223Z,67.33
2019-02-10T04:29:31.890Z,65.01
2019-02-10T04:32:00.478Z,65.93
2019-02-10T04:34:29.089Z,66.52
2019-02-10T04:36:57.672Z,66.91
2019-02-10T04:39:26.250Z,67.06
2019-02-10T04:41:54.838Z,66.44
2019-02-10T04:44:23.418Z,67.11
2019-02-10T04:46:51.998Z,66.01
2019-02-10T04:49:20.577Z,66.29
2019-02-10T04:51:49.155Z,66.70
2019-02-10T04:54:17.734Z,66.04
2019-02-10T04:56:46.393Z,66.55
2019-02-10T04:59:14.976Z,66.34
2019-02-10T05:01:43.593Z,66.55
2019-02-10T05:04:12.215Z,66.14
2019-02-10T05:06:40.790Z,64.46
2019-02-10T05:09:10.479Z,64.44
2019-02-10T05:11:39.049Z,64.80
2019-02-10T05:14:08.282Z,63.81
2019-02-10T05:16:36.870Z,65.00
2019-02-10T05:19:05.430Z,65.50
2019-02-10T05:21:34.010Z,65.25
2019-02-10T05:24:03.800Z,67.29
2019-02-10T05:26:32.553Z,64.89
2019-02-10T05:29:01.128Z,66.14
2019-02-10T05:31:29.705Z,64.04
2019-02-10T05:33:58.382Z,64.21
2019-02-10T05:36:27.027Z,63.31
2019-02-10T05:38:55.608Z,65.04
2019-02-10T05:41:24.186Z,67.14
2019-02-10T05:43:52.766Z,67.03
2019-02-10T05:46:21.394Z,66.52
2019-02-10T05:48:49.988Z,67.11
2019-02-10T05:51:18.567Z,64.63
2019-02-10T05:53:47.143Z,63.36
2019-02-10T05:56:15.724Z,63.18
2019-02-10T05:58:44.311Z,62.67
2019-02-10T06:01:49.175Z,63.13
2019-02-10T06:04:17.755Z,63.17
2019-02-10T06:06:46.388Z,63.86
2019-02-10T06:09:14.963Z,63.96
2019-02-10T06:11:43.542Z,64.19
2019-02-10T06:14:12.121Z,64.87
2019-02-10T06:16:40.752Z,64.18
2019-02-10T06:19:10.444Z,64.24
2019-02-10T06:21:39.025Z,65.44
2019-02-10T06:24:08.469Z,64.05
2019-02-10T06:26:37.042Z,63.93
2019-02-10T06:29:05.636Z,63.68
2019-02-10T06:31:34.210Z,62.42
2019-02-10T06:34:02.791Z,62.59
2019-02-10T06:36:31.375Z,62.39
2019-02-10T06:39:00.270Z,62.43
2019-02-10T06:41:28.852Z,61.82
2019-02-10T06:43:57.433Z,62.20
2019-02-10T06:46:26.046Z,62.33
2019-02-10T06:48:54.600Z,61.97
2019-02-10T06:51:23.178Z,62.17
2019-02-10T06:53:51.761Z,61.58
2019-02-10T06:56:20.359Z,61.70
2019-02-10T06:58:48.946Z,62.12
2019-02-10T07:01:21.589Z,61.02
2019-02-10T07:03:55.142Z,62.14
2019-02-10T07:06:23.723Z,62.14
2019-02-10T07:08:52.305Z,62.86
2019-02-10T07:11:20.922Z,62.47
2019-02-10T07:13:55.327Z,61.69
2019-02-10T07:16:35.733Z,60.17
2019-02-10T07:19:41.093Z,61.18
2019-02-10T07:22:34.479Z,60.80
2019-02-10T07:25:15.080Z,60.97
2019-02-10T07:27:44.662Z,60.93
2019-02-10T07:30:16.451Z,61.41
2019-02-10T07:32:51.143Z,61.90
2019-02-10T07:35:41.391Z,60.60
2019-02-10T07:38:16.281Z,60.74
2019-02-10T07:40:57.134Z,59.36
2019-02-10T07:43:37.815Z,60.22
2019-02-10T07:46:28.458Z,59.53
2019-02-10T07:49:15.150Z,59.73
2019-02-10T07:52:15.279Z,59.24
2019-02-10T07:54:56.435Z,59.53
2019-02-10T07:57:42.975Z,59.04
2019-02-10T08:00:33.507Z,59.16
2019-02-10T08:03:21.708Z,59.10
2019-02-10T08:05:56.262Z,60.00
2019-02-10T08:09:04.803Z,59.13
2019-02-10T08:11:39.418Z,58.81
2019-02-10T08:14:14.355Z,62.98
2019-02-10T08:16:57.565Z,59.82
2019-02-10T08:19:47.745Z,60.49
2019-02-10T08:22:22.501Z,59.51
2019-02-10T08:25:19.829Z,60.98
2019-02-10T08:28:03.109Z,60.50
2019-02-10T08:30:46.471Z,60.16
2019-02-10T08:33:33.395Z,59.75
2019-02-10T08:36:05.125Z,58.63
2019-02-10T08:38:45.751Z,58.68
2019-02-10T08:41:32.398Z,59.45
2019-02-10T08:44:04.095Z,59.50
2019-02-10T08:46:57.078Z,60.36
2019-02-10T08:49:47.081Z,59.07
2019-02-10T08:52:21.401Z,58.75
2019-02-10T08:54:49.979Z,59.11
2019-02-10T08:57:18.559Z,58.56
2019-02-10T08:59:47.141Z,57.48
2019-02-10T09:02:15.723Z,57.60
2019-02-10T09:04:44.302Z,58.01
2019-02-10T09:07:12.878Z,57.03
2019-02-10T09:09:41.464Z,56.88
2019-02-10T09:12:10.759Z,60.39
2019-02-10T09:14:39.337Z,58.48
2019-02-10T09:17:08.208Z,59.53
2019-02-10T09:19:37.179Z,59.43
2019-02-10T09:22:05.762Z,59.27
2019-02-10T09:24:34.390Z,60.65
2019-02-10T09:27:02.974Z,62.10
2019-02-10T09:29:31.557Z,61.11
2019-02-10T09:32:00.132Z,61.45
2019-02-10T09:34:28.718Z,60.09
2019-02-10T09:36:57.303Z,59.81
2019-02-10T09:39:25.880Z,60.06
2019-02-10T09:41:54.456Z,58.64
2019-02-10T09:44:23.047Z,58.39
2019-02-10T09:46:51.626Z,57.39
2019-02-10T09:49:20.247Z,57.20
2019-02-10T09:51:48.888Z,57.45
2019-02-10T09:54:18.555Z,57.45
2019-02-10T09:56:47.143Z,57.45
2019-02-10T09:59:15.726Z,56.86
2019-02-10T10:01:44.493Z,57.82
2019-02-10T10:04:13.077Z,57.51
2019-02-10T10:06:43.044Z,57.00
2019-02-10T10:09:18.943Z,57.46
2019-02-10T10:11:42.199Z,57.11
2019-02-10T10:14:11.935Z,57.05
2019-02-10T10:16:40.522Z,57.85
2019-02-10T10:19:09.474Z,57.49
2019-02-10T10:21:38.058Z,58.55
2019-02-10T10:24:06.654Z,58.57
2019-02-10T10:26:35.231Z,59.67
2019-02-10T10:29:03.815Z,60.15
2019-02-10T10:31:32.399Z,59.31
2019-02-10T10:34:00.978Z,60.12
2019-02-10T10:36:29.573Z,60.12
2019-02-10T10:38:58.159Z,60.68
2019-02-10T10:41:26.742Z,61.85
2019-02-10T10:43:55.329Z,62.91
2019-02-10T10:46:23.907Z,62.67
2019-02-10T10:48:52.492Z,63.29
2019-02-10T10:51:21.072Z,63.15
2019-02-10T10:53:49.766Z,63.68
2019-02-10T10:56:18.452Z,62.96
2019-02-10T10:58:47.078Z,63.76
2019-02-10T11:01:15.684Z,64.50
2019-02-10T11:03:44.272Z,65.37
2019-02-10T11:06:12.888Z,67.34
2019-02-10T11:08:41.473Z,67.59
2019-02-10T11:11:10.363Z,69.52
2019-02-10T11:13:38.962Z,70.12
2019-02-10T11:16:08.050Z,70.69
2019-02-10T11:18:36.631Z,72.65
2019-02-10T11:21:05.215Z,72.37
2019-02-10T11:23:33.864Z,72.49
2019-02-10T11:26:02.511Z,71.41
2019-02-10T11:28:31.065Z,71.31
2019-02-10T11:30:59.727Z,71.19
2019-02-10T11:33:28.310Z,70.55
2019-02-10T11:35:57.002Z,69.94
2019-02-10T11:38:25.591Z,69.95
2019-02-10T11:40:54.176Z,68.75
2019-02-10T11:43:22.757Z,70.05
2019-02-10T11:45:51.355Z,67.57
2019-02-10T11:48:19.943Z,68.10
2019-02-10T11:50:48.530Z,68.21
2019-02-10T11:53:17.117Z,69.97
2019-02-10T11:55:45.696Z,70.24
2019-02-10T11:58:14.323Z,69.58
2019-02-10T12:00:42.966Z,69.29
2019-02-10T12:03:11.557Z,69.99
2019-02-10T12:05:40.143Z,70.82
2019-02-10T12:08:09.187Z,71.83
2019-02-10T12:10:37.781Z,70.61
2019-02-10T12:13:06.357Z,70.13
2019-02-10T12:15:35.108Z,70.59
2019-02-10T12:18:03.681Z,70.59
2019-02-10T12:20:32.263Z,70.65
2019-02-10T12:23:00.854Z,71.10
2019-02-10T12:25:29.441Z,70.66
2019-02-10T12:27:58.230Z,70.90
2019-02-10T12:30:26.910Z,71.13
2019-02-10T12:32:55.490Z,71.60
2019-02-10T12:35:24.071Z,71.44
2019-02-10T12:37:52.652Z,71.14
2019-02-10T12:40:21.247Z,71.25
2019-02-10T12:42:49.826Z,72.41
2019-02-10T12:45:18.421Z,72.94
2019-02-10T12:47:47.010Z,72.21
2019-02-10T12:50:15.995Z,71.38
2019-02-10T12:52:44.580Z,71.25
2019-02-10T12:55:13.260Z,70.39
2019-02-10T12:57:41.835Z,70.24
2019-02-10T13:00:17.017Z,66.56
2019-02-10T13:02:45.641Z,66.56
2019-02-10T13:05:14.295Z,66.26
2019-02-10T13:07:42.916Z,65.40
2019-02-10T13:10:16.384Z,66.42
2019-02-10T13:12:44.369Z,66.95
2019-02-10T13:15:13.402Z,65.15
2019-02-10T13:17:42.066Z,66.04
2019-02-10T13:20:12.162Z,64.43
2019-02-10T13:22:40.737Z,61.85
2019-02-10T13:25:11.400Z,61.60
2019-02-10T13:27:39.984Z,69.52
2019-02-10T13:30:14.284Z,71.89
2019-02-10T13:32:42.902Z,73.50
2019-02-10T13:35:11.994Z,71.69
2019-02-10T13:37:40.578Z,69.33
2019-02-10T13:40:20.356Z,70.46
2019-02-10T13:42:48.943Z,71.00
2019-02-10T13:45:17.520Z,72.15
2019-02-10T13:47:46.107Z,71.52
2019-02-10T13:50:16.854Z,71.84
2019-02-10T13:52:45.437Z,73.07
2019-02-10T13:55:15.003Z,73.52
2019-02-10T13:57:43.587Z,72.87
2019-02-10T14:00:18.980Z,73.49
2019-02-10T14:02:47.572Z,74.07
2019-02-10T14:05:16.241Z,73.25
2019-02-10T14:07:45.796Z,77.00
2019-02-10T14:10:15.754Z,75.12
2019-02-10T14:12:44.433Z,76.37
2019-02-10T14:15:16.138Z,74.91
2019-02-10T14:17:44.733Z,75.35
2019-02-10T14:20:16.488Z,76.19
2019-02-10T14:22:45.075Z,75.48
2019-02-10T14:25:13.676Z,77.74
2019-02-10T14:27:42.259Z,76.17
2019-02-10T14:30:17.495Z,75.43
2019-02-10T14:32:46.076Z,74.94
2019-02-10T14:35:14.697Z,76.72
2019-02-10T14:37:43.355Z,75.09
2019-02-10T14:40:12.468Z,75.07
2019-02-10T14:42:41.049Z,76.33
2019-02-10T14:45:14.683Z,76.32
2019-02-10T14:47:43.267Z,77.64
2019-02-10T14:50:16.841Z,79.08
2019-02-10T14:52:45.427Z,79.91
2019-02-10T14:55:14.009Z,80.28
2019-02-10T14:57:42.637Z,80.46
2019-02-10T15:00:15.983Z,79.76
2019-02-10T15:02:44.633Z,80.40
2019-02-10T15:05:13.222Z,80.93
2019-02-10T15:07:41.802Z,82.39
2019-02-10T15:10:13.766Z,81.31
2019-02-10T15:12:42.444Z,82.01
2019-02-10T15:15:11.854Z,82.91
2019-02-10T15:17:40.438Z,83.44
2019-02-10T15:20:10.789Z,84.46
2019-02-10T15:22:39.372Z,85.01
2019-02-10T15:25:10.341Z,85.19
2019-02-10T15:27:38.919Z,85.61
2019-02-10T15:30:10.664Z,86.06
2019-02-10T15:32:39.242Z,87.69
2019-02-10T15:35:08.855Z,89.78
2019-02-10T15:37:37.439Z,89.89
2019-02-10T15:40:13.737Z,91.49
2019-02-10T15:42:42.316Z,90.58
2019-02-10T15:45:13.182Z,91.61
2019-02-10T15:47:41.763Z,91.80
2019-02-10T15:50:12.242Z,91.80
2019-02-10T15:52:40.820Z,89.64
2019-02-10T15:55:14.035Z,87.76
2019-02-10T15:57:42.612Z,88.01
2019-02-10T16:00:24.167Z,88.12
2019-02-10T16:02:53.227Z,88.75
2019-02-10T16:05:21.853Z,87.30
2019-02-10T16:07:50.431Z,88.96
2019-02-10T16:10:19.014Z,89.50
2019-02-10T16:12:47.638Z,89.73
2019-02-10T16:15:16.224Z,89.58
2019-02-10T16:17:44.869Z,88.48
2019-02-10T16:20:16.148Z,88.52
2019-02-10T16:22:44.745Z,90.12
2019-02-10T16:25:13.435Z,89.95
2019-02-10T16:27:42.009Z,90.73
2019-02-10T16:30:18.919Z,90.87
2019-02-10T16:32:50.018Z,90.56
2019-02-10T16:35:17.887Z,89.95
2019-02-10T16:37:46.458Z,88.18
2019-02-10T16:40:19.504Z,83.76
2019-02-10T16:42:48.083Z,85.86
2019-02-10T16:45:16.739Z,86.36
2019-02-10T16:47:45.321Z,86.23
2019-02-10T16:50:17.364Z,85.44
2019-02-10T16:52:45.950Z,85.69
2019-02-10T16:55:16.988Z,82.50
2019-02-10T16:57:45.579Z,82.04
2019-02-10T17:00:15.781Z,81.73
2019-02-10T17:02:44.380Z,83.36
2019-02-10T17:05:13.048Z,79.33
2019-02-10T17:07:41.637Z,82.82
2019-02-10T17:10:13.514Z,81.15
2019-02-10T17:12:42.100Z,81.01
2019-02-10T17:15:12.281Z,79.27
2019-02-10T17:17:40.906Z,77.47
2019-02-10T17:20:12.379Z,77.48
2019-02-10T17:22:41.297Z,75.63
2019-02-10T17:25:27.687Z,75.09
2019-02-10T17:27:57.831Z,72.98
2019-02-10T17:30:26.454Z,76.06
2019-02-10T17:32:55.036Z,80.58
2019-02-10T17:35:23.617Z,83.33
2019-02-10T17:37:52.200Z,85.13
2019-02-10T17:40:26.664Z,84.76
2019-02-10T17:42:55.256Z,80.83
2019-02-10T17:45:23.884Z,78.67
2019-02-10T17:47:52.468Z,81.80
2019-02-10T17:50:21.095Z,84.22
2019-02-10T17:52:49.672Z,84.33
2019-02-10T17:55:18.254Z,83.64
2019-02-10T17:57:47.943Z,81.92
2019-02-10T18:00:21.055Z,82.18
2019-02-10T18:02:49.685Z,81.34
2019-02-10T18:05:18.318Z,81.17
2019-02-10T18:07:46.906Z,80.72
2019-02-10T18:10:15.892Z,82.01
2019-02-10T18:12:44.477Z,79.61
2019-02-10T18:15:14.628Z,81.39
2019-02-10T18:18:00.676Z,79.00
2019-02-10T18:20:30.832Z,80.30
2019-02-10T18:23:04.024Z,79.53
2019-02-10T18:25:37.302Z,80.17
2019-02-10T18:28:16.540Z,79.90
2019-02-10T18:30:49.739Z,81.46
2019-02-10T18:33:22.914Z,81.04
2019-02-10T18:35:55.556Z,78.46
2019-02-10T18:38:35.038Z,76.64
2019-02-10T18:41:23.548Z,79.96
2019-02-10T18:44:10.388Z,80.30
2019-02-10T18:46:40.625Z,78.18
2019-02-10T18:49:29.951Z,80.20
2019-02-10T18:52:18.292Z,80.80
2019-02-10T18:54:48.464Z,80.67
2019-02-10T18:57:30.603Z,80.70
2019-02-10T19:00:00.783Z,77.43
2019-02-10T19:02:48.963Z,80.02
2019-02-10T19:05:21.711Z,81.72
2019-02-10T19:08:03.862Z,82.07
2019-02-10T19:10:37.033Z,79.74
2019-02-10T19:13:18.948Z,80.37
2019-02-10T19:15:51.911Z,79.23
2019-02-10T19:18:22.069Z,79.10
2019-02-10T19:21:01.494Z,76.88
2019-02-10T19:23:34.709Z,77.22
2019-02-10T19:26:04.905Z,78.66
2019-02-10T19:28:38.200Z,74.92
2019-02-10T19:31:15.137Z,77.54
2019-02-10T19:34:01.452Z,76.83
2019-02-10T19:36:31.664Z,78.12
2019-02-10T19:39:01.821Z,75.94
2019-02-10T19:41:35.009Z,78.58
2019-02-10T19:44:17.539Z,76.02
2019-02-10T19:46:50.639Z,77.30
2019-02-10T19:49:21.118Z,75.39
2019-02-10T19:51:57.790Z,76.26
2019-02-10T19:54:40.277Z,76.76
2019-02-10T19:57:27.498Z,76.96
2019-02-10T20:00:09.929Z,76.54
2019-02-10T20:02:42.804Z,74.14
2019-02-10T20:05:14.255Z,72.74
2019-02-10T20:07:44.406Z,74.38
2019-02-10T20:10:17.893Z,72.73
2019-02-10T20:12:53.809Z,72.39
2019-02-10T20:15:23.961Z,74.49
2019-02-10T20:17:56.721Z,71.22
2019-02-10T20:20:26.944Z,72.28
2019-02-10T20:22:57.099Z,73.36
2019-02-10T20:25:27.295Z,74.53
2019-02-10T20:28:09.518Z,72.58
2019-02-10T20:30:39.670Z,73.92
2019-02-10T20:33:15.788Z,72.68
2019-02-10T20:35:54.894Z,73.08
2019-02-10T20:38:25.063Z,72.89
2019-02-10T20:40:55.214Z,71.36
2019-02-10T20:43:28.246Z,73.06
2019-02-10T20:45:58.556Z,73.43
2019-02-10T20:48:31.427Z,71.76
2019-02-10T20:51:16.662Z,72.47
2019-02-10T20:53:49.357Z,71.66
2019-02-10T20:56:22.320Z,75.39
2019-02-10T20:58:55.504Z,71.16
2019-02-10T21:01:25.662Z,73.63
2019-02-10T21:04:01.942Z,70.07
2019-02-10T21:06:34.894Z,70.54
2019-02-10T21:09:05.045Z,71.40
2019-02-10T21:11:35.197Z,71.50
2019-02-10T21:14:11.681Z,71.30
2019-02-10T21:16:41.889Z,72.03
2019-02-10T21:19:12.306Z,72.27
2019-02-10T21:21:42.456Z,72.45
2019-02-10T21:24:25.182Z,73.30
2019-02-10T21:27:01.366Z,71.82
2019-02-10T21:29:31.554Z,75.39
2019-02-10T21:32:04.480Z,74.39
2019-02-10T21:34:37.360Z,73.14
2019-02-10T21:37:07.552Z,74.41
2019-02-10T21:39:55.755Z,76.19
2019-02-10T21:42:29.067Z,77.50
2019-02-10T21:45:00.452Z,75.27
2019-02-10T21:47:39.773Z,76.98
2019-02-10T21:50:09.350Z,77.15
2019-02-10T21:52:37.947Z,75.79
2019-02-10T21:55:08.575Z,76.65
2019-02-10T21:57:37.180Z,79.31
2019-02-10T22:00:12.330Z,77.50
2019-02-10T22:02:40.909Z,75.48
2019-02-10T22:05:09.761Z,75.25
2019-02-10T22:07:38.341Z,75.25
2019-02-10T22:10:11.869Z,75.26
2019-02-10T22:12:40.448Z,75.14
2019-02-10T22:15:10.522Z,75.21
2019-02-10T22:17:39.099Z,75.13
2019-02-10T22:20:10.693Z,74.32
2019-02-10T22:22:39.274Z,75.37
2019-02-10T22:25:10.552Z,75.17
2019-02-10T22:27:39.124Z,75.18
2019-02-10T22:30:11.626Z,75.58
2019-02-10T22:32:40.253Z,76.88
2019-02-10T22:35:09.250Z,79.64
2019-02-10T22:37:37.830Z,79.19
2019-02-10T22:40:08.520Z,82.05
2019-02-10T22:42:45.140Z,83.18
2019-02-10T22:45:12.398Z,84.30
2019-02-10T22:47:41.242Z,84.50
2019-02-10T22:50:15.174Z,84.24
2019-02-10T22:52:43.755Z,83.10
2019-02-10T22:55:12.468Z,83.18
2019-02-10T22:57:41.360Z,83.84
2019-02-10T23:00:33.006Z,84.79
2019-02-10T23:03:01.751Z,85.81
2019-02-10T23:05:30.338Z,86.22
2019-02-10T23:07:58.920Z,86.54
2019-02-10T23:10:27.498Z,86.71
2019-02-10T23:12:56.075Z,86.75
2019-02-10T23:15:24.685Z,86.72
2019-02-10T23:17:53.272Z,86.61
2019-02-10T23:20:21.853Z,86.79
2019-02-10T23:22:50.432Z,86.48
2019-02-10T23:25:19.012Z,86.78
2019-02-10T23:27:47.598Z,86.65
2019-02-10T23:30:16.187Z,86.96
2019-02-10T23:32:44.755Z,87.57
2019-02-10T23:35:13.344Z,87.20
2019-02-10T23:37:41.960Z,87.61
2019-02-10T23:40:11.329Z,87.51
2019-02-10T23:42:39.910Z,87.39
2019-02-10T23:45:09.534Z,87.04
2019-02-10T23:47:38.155Z,86.25
2019-02-10T23:50:08.154Z,87.16
2019-02-10T23:52:36.725Z,86.09
2019-02-10T23:55:05.698Z,86.03
2019-02-10T23:57:34.279Z,86.68
